sensor_id;sensor_type;location;lat;lon;timestamp;pressure;altitude;pressure_sealevel;temperature;humidity
71889;BME280;59762;49.998;14.858;2023-03-31T00:00:44;96843.72;;;7.60;100.00
71889;BME280;59762;49.998;14.858;2023-03-31T00:03:13;96838.56;;;7.59;100.00
71889;BME280;59762;49.998;14.858;2023-03-31T00:06:04;96835.53;;;7.54;100.00
71889;BME280;59762;49.998;14.858;2023-03-31T00:08:31;96838.19;;;7.54;100.00
71889;BME280;59762;49.998;14.858;2023-03-31T00:11:02;96836.03;;;7.57;100.00
71889;BME280;59762;49.998;14.858;2023-03-31T00:13:29;96822.91;;;7.56;100.00
71889;BME280;59762;49.998;14.858;2023-03-31T00:16:01;96824.41;;;7.58;100.00
71889;BME280;59762;49.998;14.858;2023-03-31T00:18:27;96821.94;;;7.39;100.00
71889;BME280;59762;49.998;14.858;2023-03-31T00:23:32;96827.16;;;7.14;100.00
71889;BME280;59762;49.998;14.858;2023-03-31T00:25:58;96815.19;;;6.92;100.00
71889;BME280;59762;49.998;14.858;2023-03-31T00:28:24;96812.44;;;6.84;100.00
71889;BME280;59762;49.998;14.858;2023-03-31T00:30:50;96803.13;;;6.80;100.00
71889;BME280;59762;49.998;14.858;2023-03-31T00:33:16;96808.41;;;6.80;100.00
71889;BME280;59762;49.998;14.858;2023-03-31T00:35:42;96814.88;;;6.78;100.00
71889;BME280;59762;49.998;14.858;2023-03-31T00:38:08;96805.63;;;6.64;100.00
71889;BME280;59762;49.998;14.858;2023-03-31T00:40:34;96805.44;;;6.66;100.00
71889;BME280;59762;49.998;14.858;2023-03-31T00:43:00;96805.63;;;6.64;100.00
71889;BME280;59762;49.998;14.858;2023-03-31T00:45:28;96803.69;;;6.57;100.00
71889;BME280;59762;49.998;14.858;2023-03-31T00:48:07;96801.16;;;6.55;100.00
71889;BME280;59762;49.998;14.858;2023-03-31T00:50:47;96797.69;;;6.55;100.00
71889;BME280;59762;49.998;14.858;2023-03-31T00:53:16;96802.13;;;6.64;100.00
71889;BME280;59762;49.998;14.858;2023-03-31T00:55:50;96801.41;;;6.62;100.00
71889;BME280;59762;49.998;14.858;2023-03-31T00:58:18;96788.72;;;6.65;100.00
71889;BME280;59762;49.998;14.858;2023-03-31T01:00:49;96786.34;;;6.62;100.00
71889;BME280;59762;49.998;14.858;2023-03-31T01:03:17;96782.56;;;6.65;100.00
71889;BME280;59762;49.998;14.858;2023-03-31T01:05:53;96775.97;;;6.69;100.00
71889;BME280;59762;49.998;14.858;2023-03-31T01:08:23;96773.84;;;6.72;100.00
71889;BME280;59762;49.998;14.858;2023-03-31T01:10:53;96772.41;;;6.78;100.00
71889;BME280;59762;49.998;14.858;2023-03-31T01:13:20;96760.53;;;6.64;100.00
71889;BME280;59762;49.998;14.858;2023-03-31T01:15:46;96758.09;;;6.71;100.00
71889;BME280;59762;49.998;14.858;2023-03-31T01:18:13;96766.22;;;6.69;100.00
71889;BME280;59762;49.998;14.858;2023-03-31T01:20:59;96750.97;;;6.71;100.00
71889;BME280;59762;49.998;14.858;2023-03-31T01:23:51;96754.97;;;6.58;100.00
71889;BME280;59762;49.998;14.858;2023-03-31T01:41:08;96724.06;;;6.66;100.00
71889;BME280;59762;49.998;14.858;2023-03-31T01:46:30;96726.78;;;6.74;100.00
71889;BME280;59762;49.998;14.858;2023-03-31T01:52:25;96709.28;;;6.64;100.00
71889;BME280;59762;49.998;14.858;2023-03-31T01:55:13;96704.19;;;6.70;100.00
71889;BME280;59762;49.998;14.858;2023-03-31T01:57:46;96698.59;;;6.73;100.00
71889;BME280;59762;49.998;14.858;2023-03-31T02:00:21;96696.63;;;6.75;100.00
71889;BME280;59762;49.998;14.858;2023-03-31T02:02:58;96694.03;;;6.83;100.00
71889;BME280;59762;49.998;14.858;2023-03-31T02:05:30;96693.34;;;6.81;100.00
71889;BME280;59762;49.998;14.858;2023-03-31T02:08:05;96684.34;;;6.74;100.00
71889;BME280;59762;49.998;14.858;2023-03-31T02:10:33;96679.84;;;6.75;100.00
71889;BME280;59762;49.998;14.858;2023-03-31T02:13:00;96680.84;;;6.74;100.00
71889;BME280;59762;49.998;14.858;2023-03-31T02:15:34;96676.91;;;6.78;100.00
71889;BME280;59762;49.998;14.858;2023-03-31T02:18:04;96671.44;;;6.79;100.00
71889;BME280;59762;49.998;14.858;2023-03-31T02:20:39;96682.44;;;6.84;100.00
71889;BME280;59762;49.998;14.858;2023-03-31T02:23:12;96680.06;;;6.81;100.00
71889;BME280;59762;49.998;14.858;2023-03-31T02:26:07;96667.72;;;6.72;100.00
71889;BME280;59762;49.998;14.858;2023-03-31T02:28:34;96662.28;;;6.74;100.00
71889;BME280;59762;49.998;14.858;2023-03-31T02:33:45;96669.88;;;6.51;100.00
71889;BME280;59762;49.998;14.858;2023-03-31T02:36:11;96669.09;;;6.41;100.00
71889;BME280;59762;49.998;14.858;2023-03-31T02:38:48;96666.22;;;6.35;100.00
71889;BME280;59762;49.998;14.858;2023-03-31T02:41:16;96652.59;;;6.30;100.00
71889;BME280;59762;49.998;14.858;2023-03-31T02:43:42;96652.06;;;6.26;100.00
71889;BME280;59762;49.998;14.858;2023-03-31T02:46:08;96655.16;;;6.22;100.00
71889;BME280;59762;49.998;14.858;2023-03-31T02:48:42;96656.28;;;6.19;100.00
71889;BME280;59762;49.998;14.858;2023-03-31T02:51:22;96659.91;;;6.18;100.00
71889;BME280;59762;49.998;14.858;2023-03-31T03:02:44;96645.75;;;6.27;100.00
71889;BME280;59762;49.998;14.858;2023-03-31T03:05:34;96652.19;;;6.25;100.00
71889;BME280;59762;49.998;14.858;2023-03-31T03:13:58;96636.53;;;6.31;100.00
71889;BME280;59762;49.998;14.858;2023-03-31T03:16:47;96625.22;;;6.29;100.00
71889;BME280;59762;49.998;14.858;2023-03-31T03:19:20;96635.47;;;6.42;100.00
71889;BME280;59762;49.998;14.858;2023-03-31T03:21:46;96631.06;;;6.50;100.00
71889;BME280;59762;49.998;14.858;2023-03-31T03:24:14;96634.31;;;6.62;100.00
71889;BME280;59762;49.998;14.858;2023-03-31T03:26:41;96633.47;;;6.79;100.00
71889;BME280;59762;49.998;14.858;2023-03-31T03:29:07;96625.69;;;6.77;100.00
71889;BME280;59762;49.998;14.858;2023-03-31T03:31:32;96623.06;;;6.85;100.00
71889;BME280;59762;49.998;14.858;2023-03-31T03:33:59;96618.97;;;6.91;100.00
71889;BME280;59762;49.998;14.858;2023-03-31T03:36:25;96617.03;;;7.01;100.00
71889;BME280;59762;49.998;14.858;2023-03-31T03:38:51;96614.22;;;7.02;100.00
71889;BME280;59762;49.998;14.858;2023-03-31T03:41:16;96608.56;;;6.97;100.00
71889;BME280;59762;49.998;14.858;2023-03-31T03:43:42;96603.25;;;6.97;100.00
71889;BME280;59762;49.998;14.858;2023-03-31T03:46:08;96601.38;;;6.90;100.00
71889;BME280;59762;49.998;14.858;2023-03-31T03:48:33;96600.53;;;6.89;100.00
71889;BME280;59762;49.998;14.858;2023-03-31T03:50:59;96595.59;;;6.94;100.00
71889;BME280;59762;49.998;14.858;2023-03-31T03:53:26;96585.88;;;7.03;100.00
71889;BME280;59762;49.998;14.858;2023-03-31T03:55:51;96583.44;;;7.09;100.00
71889;BME280;59762;49.998;14.858;2023-03-31T03:58:17;96585.66;;;7.22;100.00
71889;BME280;59762;49.998;14.858;2023-03-31T04:00:44;96566.41;;;7.20;100.00
71889;BME280;59762;49.998;14.858;2023-03-31T04:03:10;96568.75;;;7.31;100.00
71889;BME280;59762;49.998;14.858;2023-03-31T04:05:36;96556.22;;;7.41;100.00
71889;BME280;59762;49.998;14.858;2023-03-31T04:08:02;96554.22;;;7.43;100.00
71889;BME280;59762;49.998;14.858;2023-03-31T04:10:28;96555.91;;;7.52;100.00
71889;BME280;59762;49.998;14.858;2023-03-31T04:12:54;96556.59;;;7.54;100.00
71889;BME280;59762;49.998;14.858;2023-03-31T04:15:20;96553.09;;;7.53;100.00
71889;BME280;59762;49.998;14.858;2023-03-31T04:17:46;96551.78;;;7.57;100.00
71889;BME280;59762;49.998;14.858;2023-03-31T04:20:16;96551.47;;;7.60;100.00
71889;BME280;59762;49.998;14.858;2023-03-31T04:22:42;96550.63;;;7.60;100.00
71889;BME280;59762;49.998;14.858;2023-03-31T04:25:12;96549.28;;;7.56;100.00
71889;BME280;59762;49.998;14.858;2023-03-31T04:27:51;96542.13;;;7.48;100.00
71889;BME280;59762;49.998;14.858;2023-03-31T04:30:24;96537.28;;;7.44;100.00
71889;BME280;59762;49.998;14.858;2023-03-31T04:33:00;96538.13;;;7.44;100.00
71889;BME280;59762;49.998;14.858;2023-03-31T04:35:28;96541.44;;;7.38;100.00
71889;BME280;59762;49.998;14.858;2023-03-31T04:38:18;96546.16;;;7.27;100.00
71889;BME280;59762;49.998;14.858;2023-03-31T04:40:45;96532.09;;;7.26;100.00
71889;BME280;59762;49.998;14.858;2023-03-31T04:43:11;96524.63;;;7.30;100.00
71889;BME280;59762;49.998;14.858;2023-03-31T04:45:37;96513.69;;;7.33;100.00
71889;BME280;59762;49.998;14.858;2023-03-31T04:48:03;96509.22;;;7.41;100.00
71889;BME280;59762;49.998;14.858;2023-03-31T04:50:28;96506.56;;;7.41;100.00
71889;BME280;59762;49.998;14.858;2023-03-31T04:52:54;96497.81;;;7.57;100.00
71889;BME280;59762;49.998;14.858;2023-03-31T04:55:20;96497.69;;;7.66;100.00
71889;BME280;59762;49.998;14.858;2023-03-31T04:57:46;96491.16;;;7.53;100.00
71889;BME280;59762;49.998;14.858;2023-03-31T05:00:12;96495.16;;;7.57;100.00
71889;BME280;59762;49.998;14.858;2023-03-31T05:02:38;96498.69;;;7.65;100.00
71889;BME280;59762;49.998;14.858;2023-03-31T05:05:03;96500.50;;;7.65;100.00
71889;BME280;59762;49.998;14.858;2023-03-31T05:07:30;96499.22;;;7.77;100.00
71889;BME280;59762;49.998;14.858;2023-03-31T05:09:56;96495.38;;;7.71;100.00
71889;BME280;59762;49.998;14.858;2023-03-31T05:12:21;96488.56;;;7.69;100.00
71889;BME280;59762;49.998;14.858;2023-03-31T05:14:47;96489.22;;;7.63;100.00
71889;BME280;59762;49.998;14.858;2023-03-31T05:17:13;96491.19;;;7.61;100.00
71889;BME280;59762;49.998;14.858;2023-03-31T05:19:38;96491.19;;;7.61;100.00
71889;BME280;59762;49.998;14.858;2023-03-31T05:22:04;96488.88;;;7.66;100.00
71889;BME280;59762;49.998;14.858;2023-03-31T05:24:30;96490.22;;;7.62;100.00
71889;BME280;59762;49.998;14.858;2023-03-31T05:26:56;96483.41;;;7.67;100.00
71889;BME280;59762;49.998;14.858;2023-03-31T05:29:22;96487.41;;;7.71;100.00
71889;BME280;59762;49.998;14.858;2023-03-31T05:31:48;96479.28;;;7.73;100.00
71889;BME280;59762;49.998;14.858;2023-03-31T05:34:15;96463.81;;;7.76;100.00
71889;BME280;59762;49.998;14.858;2023-03-31T05:36:41;96464.69;;;7.85;100.00
71889;BME280;59762;49.998;14.858;2023-03-31T05:39:08;96464.69;;;7.93;100.00
71889;BME280;59762;49.998;14.858;2023-03-31T05:41:34;96453.22;;;8.08;100.00
71889;BME280;59762;49.998;14.858;2023-03-31T05:43:59;96445.56;;;8.05;100.00
71889;BME280;59762;49.998;14.858;2023-03-31T05:46:27;96442.75;;;8.07;100.00
71889;BME280;59762;49.998;14.858;2023-03-31T05:48:52;96437.81;;;8.28;100.00
71889;BME280;59762;49.998;14.858;2023-03-31T05:51:18;96430.78;;;8.27;100.00
71889;BME280;59762;49.998;14.858;2023-03-31T05:53:44;96428.31;;;8.18;100.00
71889;BME280;59762;49.998;14.858;2023-03-31T05:56:10;96429.94;;;8.02;100.00
71889;BME280;59762;49.998;14.858;2023-03-31T05:58:36;96424.97;;;7.83;100.00
71889;BME280;59762;49.998;14.858;2023-03-31T06:01:08;96412.53;;;7.84;100.00
71889;BME280;59762;49.998;14.858;2023-03-31T06:03:36;96417.00;;;7.83;100.00
71889;BME280;59762;49.998;14.858;2023-03-31T06:06:03;96407.53;;;7.73;100.00
71889;BME280;59762;49.998;14.858;2023-03-31T06:08:39;96407.88;;;7.86;100.00
71889;BME280;59762;49.998;14.858;2023-03-31T06:11:07;96407.16;;;8.40;100.00
71889;BME280;59762;49.998;14.858;2023-03-31T06:13:34;96397.09;;;8.82;100.00
71889;BME280;59762;49.998;14.858;2023-03-31T06:16:00;96393.63;;;9.12;100.00
71889;BME280;59762;49.998;14.858;2023-03-31T06:18:32;96396.25;;;9.20;100.00
71889;BME280;59762;49.998;14.858;2023-03-31T06:20:58;96384.91;;;9.26;100.00
71889;BME280;59762;49.998;14.858;2023-03-31T06:23:24;96378.13;;;9.46;100.00
71889;BME280;59762;49.998;14.858;2023-03-31T06:25:50;96380.31;;;9.65;100.00
71889;BME280;59762;49.998;14.858;2023-03-31T06:28:16;96370.56;;;9.80;100.00
71889;BME280;59762;49.998;14.858;2023-03-31T06:30:42;96367.44;;;9.91;100.00
71889;BME280;59762;49.998;14.858;2023-03-31T06:33:08;96357.28;;;9.95;100.00
71889;BME280;59762;49.998;14.858;2023-03-31T06:35:37;96367.63;;;10.12;96.82
71889;BME280;59762;49.998;14.858;2023-03-31T06:38:03;96358.50;;;10.07;95.95
71889;BME280;59762;49.998;14.858;2023-03-31T06:40:29;96365.72;;;10.35;95.20
71889;BME280;59762;49.998;14.858;2023-03-31T06:42:54;96370.75;;;10.53;92.45
71889;BME280;59762;49.998;14.858;2023-03-31T06:45:20;96370.56;;;10.54;89.79
71889;BME280;59762;49.998;14.858;2023-03-31T06:47:46;96363.84;;;10.58;86.77
71889;BME280;59762;49.998;14.858;2023-03-31T06:50:12;96368.88;;;10.97;83.90
71889;BME280;59762;49.998;14.858;2023-03-31T06:52:38;96371.47;;;10.90;83.78
71889;BME280;59762;49.998;14.858;2023-03-31T06:55:06;96363.47;;;10.76;81.40
71889;BME280;59762;49.998;14.858;2023-03-31T06:57:33;96356.66;;;10.88;81.39
71889;BME280;59762;49.998;14.858;2023-03-31T06:59:59;96360.78;;;10.76;82.58
71889;BME280;59762;49.998;14.858;2023-03-31T07:02:24;96365.50;;;10.59;82.60
71889;BME280;59762;49.998;14.858;2023-03-31T07:04:51;96365.59;;;10.66;82.03
71889;BME280;59762;49.998;14.858;2023-03-31T07:07:17;96365.59;;;10.66;82.15
71889;BME280;59762;49.998;14.858;2023-03-31T07:09:42;96362.47;;;10.62;81.78
71889;BME280;59762;49.998;14.858;2023-03-31T07:12:08;96367.06;;;10.68;81.59
71889;BME280;59762;49.998;14.858;2023-03-31T07:14:35;96355.09;;;10.50;82.17
71889;BME280;59762;49.998;14.858;2023-03-31T07:17:01;96349.84;;;10.71;81.81
71889;BME280;59762;49.998;14.858;2023-03-31T07:19:27;96345.53;;;10.70;81.52
71889;BME280;59762;49.998;14.858;2023-03-31T07:21:53;96347.44;;;10.90;81.10
71889;BME280;59762;49.998;14.858;2023-03-31T07:24:19;96347.25;;;10.63;81.22
71889;BME280;59762;49.998;14.858;2023-03-31T07:26:44;96341.28;;;10.75;81.92
71889;BME280;59762;49.998;14.858;2023-03-31T07:29:10;96344.78;;;10.61;83.05
71889;BME280;59762;49.998;14.858;2023-03-31T07:31:36;96342.00;;;10.69;83.02
71889;BME280;59762;49.998;14.858;2023-03-31T07:34:02;96330.34;;;10.41;84.29
71889;BME280;59762;49.998;14.858;2023-03-31T07:36:29;96332.06;;;10.34;84.56
71889;BME280;59762;49.998;14.858;2023-03-31T07:38:55;96333.28;;;10.46;83.11
71889;BME280;59762;49.998;14.858;2023-03-31T07:41:21;96335.56;;;10.20;85.80
71889;BME280;59762;49.998;14.858;2023-03-31T07:43:48;96332.03;;;10.20;87.09
71889;BME280;59762;49.998;14.858;2023-03-31T07:46:20;96335.56;;;10.20;88.96
71889;BME280;59762;49.998;14.858;2023-03-31T07:48:46;96335.75;;;9.96;91.81
71889;BME280;59762;49.998;14.858;2023-03-31T07:51:19;96334.59;;;9.76;96.20
71889;BME280;59762;49.998;14.858;2023-03-31T07:53:49;96321.09;;;9.78;95.20
71889;BME280;59762;49.998;14.858;2023-03-31T07:56:21;96323.69;;;9.86;95.05
71889;BME280;59762;49.998;14.858;2023-03-31T07:58:47;96316.91;;;9.98;94.00
71889;BME280;59762;49.998;14.858;2023-03-31T08:01:18;96314.78;;;10.30;93.11
71889;BME280;59762;49.998;14.858;2023-03-31T08:03:46;96302.16;;;10.68;89.81
71889;BME280;59762;49.998;14.858;2023-03-31T08:06:20;96297.69;;;11.04;88.14
71889;BME280;59762;49.998;14.858;2023-03-31T08:08:48;96300.31;;;11.39;85.60
71889;BME280;59762;49.998;14.858;2023-03-31T08:11:14;96296.34;;;11.71;83.55
71889;BME280;59762;49.998;14.858;2023-03-31T08:13:40;96294.28;;;11.94;81.76
71889;BME280;59762;49.998;14.858;2023-03-31T08:16:05;96293.28;;;11.95;79.22
71889;BME280;59762;49.998;14.858;2023-03-31T08:18:31;96291.28;;;12.31;78.22
71889;BME280;59762;49.998;14.858;2023-03-31T08:20:58;96282.78;;;12.21;80.00
71889;BME280;59762;49.998;14.858;2023-03-31T08:23:24;96283.56;;;12.49;76.73
71889;BME280;59762;49.998;14.858;2023-03-31T08:25:50;96280.88;;;12.49;77.67
71889;BME280;59762;49.998;14.858;2023-03-31T08:28:16;96287.47;;;12.46;79.38
71889;BME280;59762;49.998;14.858;2023-03-31T08:30:42;96279.16;;;12.69;78.70
71889;BME280;59762;49.998;14.858;2023-03-31T08:33:08;96283.97;;;12.52;77.67
71889;BME280;59762;49.998;14.858;2023-03-31T08:35:34;96276.94;;;12.45;77.51
71889;BME280;59762;49.998;14.858;2023-03-31T08:38:00;96275.75;;;12.20;77.38
71889;BME280;59762;49.998;14.858;2023-03-31T08:40:27;96278.44;;;12.20;76.71
71889;BME280;59762;49.998;14.858;2023-03-31T08:43:05;96278.19;;;12.15;79.16
71889;BME280;59762;49.998;14.858;2023-03-31T08:45:34;96278.28;;;12.00;81.92
71889;BME280;59762;49.998;14.858;2023-03-31T08:50:55;96266.84;;;11.22;88.23
71889;BME280;59762;49.998;14.858;2023-03-31T08:53:27;96271.00;;;10.89;88.64
71889;BME280;59762;49.998;14.858;2023-03-31T08:55:55;96274.53;;;11.11;88.17
71889;BME280;59762;49.998;14.858;2023-03-31T08:58:39;96266.97;;;10.79;89.56
71889;BME280;59762;49.998;14.858;2023-03-31T09:12:36;96255.44;;;10.43;92.18
71889;BME280;59762;49.998;14.858;2023-03-31T09:15:13;96248.06;;;10.45;91.69
71889;BME280;59762;49.998;14.858;2023-03-31T09:17:46;96241.78;;;10.52;90.48
71889;BME280;59762;49.998;14.858;2023-03-31T09:20:27;96241.03;;;10.73;90.38
71889;BME280;59762;49.998;14.858;2023-03-31T09:23:28;96231.09;;;10.67;90.82
71889;BME280;59762;49.998;14.858;2023-03-31T09:25:57;96231.16;;;10.73;89.97
71889;BME280;59762;49.998;14.858;2023-03-31T09:28:50;96237.91;;;10.69;90.98
71889;BME280;59762;49.998;14.858;2023-03-31T09:31:18;96237.09;;;10.69;92.35
71889;BME280;59762;49.998;14.858;2023-03-31T09:33:45;96238.22;;;10.45;90.61
71889;BME280;59762;49.998;14.858;2023-03-31T09:36:19;96242.09;;;10.43;92.16
71889;BME280;59762;49.998;14.858;2023-03-31T09:38:48;96235.47;;;10.39;93.10
71889;BME280;59762;49.998;14.858;2023-03-31T09:41:15;96229.31;;;10.38;92.38
71889;BME280;59762;49.998;14.858;2023-03-31T09:43:42;96222.69;;;10.34;92.98
71889;BME280;59762;49.998;14.858;2023-03-31T09:46:17;96210.28;;;10.27;94.22
71889;BME280;59762;49.998;14.858;2023-03-31T09:48:51;96202.53;;;10.17;94.69
71889;BME280;59762;49.998;14.858;2023-03-31T09:51:25;96183.69;;;10.33;91.96
71889;BME280;59762;49.998;14.858;2023-03-31T09:54:02;96176.69;;;10.32;92.99
71889;BME280;59762;49.998;14.858;2023-03-31T09:59:38;96175.41;;;10.28;88.58
71889;BME280;59762;49.998;14.858;2023-03-31T10:02:32;96184.50;;;10.34;90.41
71889;BME280;59762;49.998;14.858;2023-03-31T10:05:00;96179.34;;;10.32;91.91
71889;BME280;59762;49.998;14.858;2023-03-31T10:07:27;96188.94;;;10.12;93.77
71889;BME280;59762;49.998;14.858;2023-03-31T10:09:53;96182.19;;;10.02;95.57
71889;BME280;59762;49.998;14.858;2023-03-31T10:12:21;96187.81;;;10.07;96.46
71889;BME280;59762;49.998;14.858;2023-03-31T10:14:50;96185.69;;;9.88;97.66
71889;BME280;59762;49.998;14.858;2023-03-31T10:17:20;96184.59;;;9.97;98.46
71889;BME280;59762;49.998;14.858;2023-03-31T10:19:48;96168.13;;;9.79;100.00
71889;BME280;59762;49.998;14.858;2023-03-31T10:24:46;96177.50;;;9.75;100.00
71889;BME280;59762;49.998;14.858;2023-03-31T10:27:20;96170.78;;;9.64;100.00
71889;BME280;59762;49.998;14.858;2023-03-31T10:29:47;96154.72;;;9.72;100.00
71889;BME280;59762;49.998;14.858;2023-03-31T10:32:27;96162.16;;;9.62;100.00
71889;BME280;59762;49.998;14.858;2023-03-31T10:34:55;96153.97;;;9.78;100.00
71889;BME280;59762;49.998;14.858;2023-03-31T10:37:24;96146.81;;;9.79;100.00
71889;BME280;59762;49.998;14.858;2023-03-31T10:40:01;96151.75;;;9.96;100.00
71889;BME280;59762;49.998;14.858;2023-03-31T10:42:30;96136.59;;;10.26;100.00
71889;BME280;59762;49.998;14.858;2023-03-31T10:45:11;96136.19;;;10.64;100.00
71889;BME280;59762;49.998;14.858;2023-03-31T10:47:39;96126.72;;;10.62;100.00
71889;BME280;59762;49.998;14.858;2023-03-31T10:50:15;96117.34;;;10.66;100.00
71889;BME280;59762;49.998;14.858;2023-03-31T10:52:46;96114.06;;;10.70;100.00
71889;BME280;59762;49.998;14.858;2023-03-31T10:55:26;96119.56;;;10.62;100.00
71889;BME280;59762;49.998;14.858;2023-03-31T10:58:00;96112.84;;;10.66;100.00
71889;BME280;59762;49.998;14.858;2023-03-31T11:00:36;96106.72;;;10.72;100.00
71889;BME280;59762;49.998;14.858;2023-03-31T11:19:37;96096.69;;;9.89;100.00
71889;BME280;59762;49.998;14.858;2023-03-31T11:22:32;96088.44;;;9.84;100.00
71889;BME280;59762;49.998;14.858;2023-03-31T11:25:16;96087.16;;;9.80;100.00
71889;BME280;59762;49.998;14.858;2023-03-31T11:30:51;96080.00;;;9.80;100.00
71889;BME280;59762;49.998;14.858;2023-03-31T11:44:18;96075.97;;;9.55;100.00
71889;BME280;59762;49.998;14.858;2023-03-31T11:46:48;96078.00;;;9.53;100.00
71889;BME280;59762;49.998;14.858;2023-03-31T11:49:19;96054.63;;;9.55;100.00
71889;BME280;59762;49.998;14.858;2023-03-31T11:51:59;96055.00;;;9.67;100.00
71889;BME280;59762;49.998;14.858;2023-03-31T11:54:37;96065.28;;;9.70;100.00
71889;BME280;59762;49.998;14.858;2023-03-31T11:57:14;96060.97;;;9.69;100.00
71889;BME280;59762;49.998;14.858;2023-03-31T11:59:43;96056.47;;;9.69;100.00
71889;BME280;59762;49.998;14.858;2023-03-31T12:03:30;96041.47;;;9.83;100.00
71889;BME280;59762;49.998;14.858;2023-03-31T12:05:32;96030.00;;;10.03;100.00
71889;BME280;59762;49.998;14.858;2023-03-31T12:10:46;95963.34;;;10.03;100.00
71889;BME280;59762;49.998;14.858;2023-03-31T12:16:10;95995.75;;;10.63;100.00
71889;BME280;59762;49.998;14.858;2023-03-31T12:18:44;95989.31;;;11.06;100.00
71889;BME280;59762;49.998;14.858;2023-03-31T12:21:14;95970.25;;;11.16;100.00
71889;BME280;59762;49.998;14.858;2023-03-31T12:23:43;95971.91;;;11.57;100.00
71889;BME280;59762;49.998;14.858;2023-03-31T12:28:45;95944.94;;;12.12;100.00
71889;BME280;59762;49.998;14.858;2023-03-31T12:31:20;95953.56;;;11.95;100.00
71889;BME280;59762;49.998;14.858;2023-03-31T12:34:02;95956.00;;;11.77;100.00
71889;BME280;59762;49.998;14.858;2023-03-31T12:36:48;95962.56;;;11.87;100.00
71889;BME280;59762;49.998;14.858;2023-03-31T12:39:28;95962.63;;;12.00;100.00
71889;BME280;59762;49.998;14.858;2023-03-31T12:55:37;95938.06;;;11.77;100.00
71889;BME280;59762;49.998;14.858;2023-03-31T13:06:02;95912.47;;;12.28;98.80
71889;BME280;59762;49.998;14.858;2023-03-31T13:08:48;95914.09;;;12.23;100.00
71889;BME280;59762;49.998;14.858;2023-03-31T13:11:14;95906.88;;;12.04;100.00
71889;BME280;59762;49.998;14.858;2023-03-31T13:14:05;95903.78;;;12.33;100.00
71889;BME280;59762;49.998;14.858;2023-03-31T13:16:33;95899.88;;;12.81;93.36
71889;BME280;59762;49.998;14.858;2023-03-31T13:19:00;95901.72;;;12.80;100.00
71889;BME280;59762;49.998;14.858;2023-03-31T13:21:26;95898.88;;;12.56;91.15
71889;BME280;59762;49.998;14.858;2023-03-31T13:23:51;95900.50;;;12.63;88.81
71889;BME280;59762;49.998;14.858;2023-03-31T13:26:37;95894.13;;;12.19;88.90
71889;BME280;59762;49.998;14.858;2023-03-31T13:34:41;95871.94;;;11.45;90.96
71889;BME280;59762;49.998;14.858;2023-03-31T13:51:54;95815.47;;;11.68;100.00
71889;BME280;59762;49.998;14.858;2023-03-31T14:05:44;95785.38;;;12.57;85.00
71889;BME280;59762;49.998;14.858;2023-03-31T14:08:22;95782.44;;;12.78;82.14
71889;BME280;59762;49.998;14.858;2023-03-31T14:10:51;95774.94;;;12.36;81.11
71889;BME280;59762;49.998;14.858;2023-03-31T14:13:18;95766.91;;;12.23;81.85
71889;BME280;59762;49.998;14.858;2023-03-31T14:15:56;95776.84;;;11.90;82.40
71889;BME280;59762;49.998;14.858;2023-03-31T14:18:35;95773.72;;;11.99;80.42
71889;BME280;59762;49.998;14.858;2023-03-31T14:31:44;95898.59;;;10.30;90.88
71889;BME280;59762;49.998;14.858;2023-03-31T14:37:09;95896.81;;;8.60;100.00
71889;BME280;59762;49.998;14.858;2023-03-31T14:39:46;95911.00;;;8.38;100.00
71889;BME280;59762;49.998;14.858;2023-03-31T14:42:15;95900.09;;;8.33;100.00
71889;BME280;59762;49.998;14.858;2023-03-31T14:44:44;95875.44;;;8.39;95.68
71889;BME280;59762;49.998;14.858;2023-03-31T14:47:28;95869.63;;;8.21;100.00
71889;BME280;59762;49.998;14.858;2023-03-31T14:50:07;95867.06;;;8.42;92.27
71889;BME280;59762;49.998;14.858;2023-03-31T14:52:36;95859.00;;;8.50;94.24
71889;BME280;59762;49.998;14.858;2023-03-31T14:55:02;95873.25;;;8.57;92.34
71889;BME280;59762;49.998;14.858;2023-03-31T14:57:32;95862.59;;;8.71;91.91
71889;BME280;59762;49.998;14.858;2023-03-31T15:00:02;95853.53;;;8.66;89.55
71889;BME280;59762;49.998;14.858;2023-03-31T15:02:44;95844.88;;;8.64;91.26
71889;BME280;59762;49.998;14.858;2023-03-31T15:05:30;95838.19;;;8.68;92.95
71889;BME280;59762;49.998;14.858;2023-03-31T15:08:02;95831.88;;;8.69;93.89
71889;BME280;59762;49.998;14.858;2023-03-31T15:10:32;95822.69;;;8.71;89.74
71889;BME280;59762;49.998;14.858;2023-03-31T15:13:01;95820.84;;;8.72;87.87
71889;BME280;59762;49.998;14.858;2023-03-31T15:15:31;95795.06;;;8.72;90.78
71889;BME280;59762;49.998;14.858;2023-03-31T15:17:57;95801.78;;;8.68;93.52
71889;BME280;59762;49.998;14.858;2023-03-31T15:20:34;95801.31;;;8.65;95.17
71889;BME280;59762;49.998;14.858;2023-03-31T15:23:02;95786.72;;;8.75;89.02
71889;BME280;59762;49.998;14.858;2023-03-31T15:25:35;95771.03;;;8.66;90.78
71889;BME280;59762;49.998;14.858;2023-03-31T15:28:10;95753.97;;;8.60;89.94
71889;BME280;59762;49.998;14.858;2023-03-31T15:30:38;95752.50;;;8.72;89.50
71889;BME280;59762;49.998;14.858;2023-03-31T15:33:07;95744.81;;;8.63;92.86
71889;BME280;59762;49.998;14.858;2023-03-31T15:35:41;95746.09;;;8.52;92.83
71889;BME280;59762;49.998;14.858;2023-03-31T15:38:09;95761.59;;;8.63;91.53
71889;BME280;59762;49.998;14.858;2023-03-31T15:40:38;95760.06;;;8.54;95.39
71889;BME280;59762;49.998;14.858;2023-03-31T15:46:08;95780.69;;;8.52;93.61
71889;BME280;59762;49.998;14.858;2023-03-31T15:48:43;95790.03;;;8.48;96.16
71889;BME280;59762;49.998;14.858;2023-03-31T15:53:50;95793.00;;;8.39;100.00
71889;BME280;59762;49.998;14.858;2023-03-31T15:56:43;95783.91;;;8.48;100.00
71889;BME280;59762;49.998;14.858;2023-03-31T15:59:26;95783.06;;;8.62;98.70